sensor_id;sensor_type;location;lat;lon;timestamp;noise_LAeq;noise_LA_min;noise_LA_max;noise_LA01;noise_LA95
61095;Laerm;20450;49.074;9.158;2023-07-29T00:01:40;42.54;40.53;43.86;;
61095;Laerm;20450;49.074;9.158;2023-07-29T00:04:08;42.53;40.98;44.11;;
61095;Laerm;20450;49.074;9.158;2023-07-29T00:06:36;42.68;41.14;44.39;;
61095;Laerm;20450;49.074;9.158;2023-07-29T00:09:04;42.47;41.06;43.72;;
61095;Laerm;20450;49.074;9.158;2023-07-29T00:11:31;42.34;40.98;43.72;;
61095;Laerm;20450;49.074;9.158;2023-07-29T00:13:58;42.13;40.13;43.68;;
61095;Laerm;20450;49.074;9.158;2023-07-29T00:16:28;42.16;40.53;44.19;;
61095;Laerm;20450;49.074;9.158;2023-07-29T00:18:55;42.09;40.43;43.49;;
61095;Laerm;20450;49.074;9.158;2023-07-29T00:21:23;41.64;40.03;43.09;;
61095;Laerm;20450;49.074;9.158;2023-07-29T00:23:50;41.30;39.58;43.09;;
61095;Laerm;20450;49.074;9.158;2023-07-29T00:26:17;41.44;39.46;43.09;;
61095;Laerm;20450;49.074;9.158;2023-07-29T00:28:44;41.37;39.46;42.93;;
61095;Laerm;20450;49.074;9.158;2023-07-29T00:31:11;41.30;39.21;43.19;;
61095;Laerm;20450;49.074;9.158;2023-07-29T00:33:39;41.28;38.81;44.35;;
61095;Laerm;20450;49.074;9.158;2023-07-29T00:36:06;41.17;39.08;42.65;;
61095;Laerm;20450;49.074;9.158;2023-07-29T00:38:33;41.22;39.34;43.04;;
61095;Laerm;20450;49.074;9.158;2023-07-29T00:41:02;40.94;38.95;43.86;;
61095;Laerm;20450;49.074;9.158;2023-07-29T00:43:29;41.23;39.21;42.88;;
61095;Laerm;20450;49.074;9.158;2023-07-29T00:45:56;41.04;39.21;43.09;;
61095;Laerm;20450;49.074;9.158;2023-07-29T00:48:25;40.88;38.37;44.47;;
61095;Laerm;20450;49.074;9.158;2023-07-29T00:50:55;40.99;38.81;43.54;;
61095;Laerm;20450;49.074;9.158;2023-07-29T00:53:23;40.67;38.37;44.83;;
61095;Laerm;20450;49.074;9.158;2023-07-29T00:55:50;40.76;38.52;43.39;;
61095;Laerm;20450;49.074;9.158;2023-07-29T00:58:17;40.37;37.70;51.01;;
61095;Laerm;20450;49.074;9.158;2023-07-29T01:00:44;40.04;37.32;42.47;;
61095;Laerm;20450;49.074;9.158;2023-07-29T01:03:12;40.15;38.02;41.96;;
61095;Laerm;20450;49.074;9.158;2023-07-29T01:05:53;39.90;37.12;41.82;;
61095;Laerm;20450;49.074;9.158;2023-07-29T01:08:36;64.63;36.20;95.81;;
61095;Laerm;20450;49.074;9.158;2023-07-29T01:11:23;40.37;37.52;43.14;;
61095;Laerm;20450;49.074;9.158;2023-07-29T01:14:03;40.25;38.05;43.68;;
61095;Laerm;20450;49.074;9.158;2023-07-29T01:16:42;39.65;37.12;41.46;;
61095;Laerm;20450;49.074;9.158;2023-07-29T01:19:25;39.86;36.69;44.23;;
61095;Laerm;20450;49.074;9.158;2023-07-29T01:21:56;39.58;37.12;42.53;;
61095;Laerm;20450;49.074;9.158;2023-07-29T01:24:25;39.45;37.12;41.38;;
61095;Laerm;20450;49.074;9.158;2023-07-29T01:26:55;39.58;36.69;41.89;;
61095;Laerm;20450;49.074;9.158;2023-07-29T01:29:22;39.75;36.69;43.09;;
61095;Laerm;20450;49.074;9.158;2023-07-29T01:31:54;39.46;36.45;44.47;;
61095;Laerm;20450;49.074;9.158;2023-07-29T01:34:34;39.36;36.69;42.35;;
61095;Laerm;20450;49.074;9.158;2023-07-29T01:37:05;39.29;35.36;43.44;;
61095;Laerm;20450;49.074;9.158;2023-07-29T01:39:38;39.62;36.34;51.93;;
61095;Laerm;20450;49.074;9.158;2023-07-29T01:42:08;39.29;36.45;42.82;;
61095;Laerm;20450;49.074;9.158;2023-07-29T01:44:36;40.00;36.45;44.62;;
61095;Laerm;20450;49.074;9.158;2023-07-29T01:47:03;39.11;36.20;42.88;;
61095;Laerm;20450;49.074;9.158;2023-07-29T01:49:30;39.35;36.69;44.19;;
61095;Laerm;20450;49.074;9.158;2023-07-29T01:51:59;39.25;36.20;42.71;;
61095;Laerm;20450;49.074;9.158;2023-07-29T01:54:26;38.97;36.20;41.61;;
61095;Laerm;20450;49.074;9.158;2023-07-29T01:56:54;39.08;36.45;41.22;;
61095;Laerm;20450;49.074;9.158;2023-07-29T01:59:21;38.99;35.36;44.11;;
61095;Laerm;20450;49.074;9.158;2023-07-29T02:01:48;38.91;35.66;42.59;;
61095;Laerm;20450;49.074;9.158;2023-07-29T02:04:15;39.50;35.66;45.14;;
61095;Laerm;20450;49.074;9.158;2023-07-29T02:06:42;38.82;35.94;42.09;;
61095;Laerm;20450;49.074;9.158;2023-07-29T02:09:09;38.84;35.66;42.03;;
61095;Laerm;20450;49.074;9.158;2023-07-29T02:11:36;38.90;35.66;41.75;;
61095;Laerm;20450;49.074;9.158;2023-07-29T02:14:05;38.85;35.66;41.75;;
61095;Laerm;20450;49.074;9.158;2023-07-29T02:16:32;38.95;35.66;41.22;;
61095;Laerm;20450;49.074;9.158;2023-07-29T02:18:59;38.79;36.20;40.98;;
61095;Laerm;20450;49.074;9.158;2023-07-29T02:21:26;39.09;35.36;41.89;;
61095;Laerm;20450;49.074;9.158;2023-07-29T02:23:53;39.62;36.20;43.99;;
61095;Laerm;20450;49.074;9.158;2023-07-29T02:26:23;39.05;34.31;41.96;;
61095;Laerm;20450;49.074;9.158;2023-07-29T02:28:50;39.15;36.20;41.46;;
61095;Laerm;20450;49.074;9.158;2023-07-29T02:31:23;39.58;35.94;42.16;;
61095;Laerm;20450;49.074;9.158;2023-07-29T02:33:51;39.47;36.69;43.72;;
61095;Laerm;20450;49.074;9.158;2023-07-29T02:36:19;39.59;36.45;43.58;;
61095;Laerm;20450;49.074;9.158;2023-07-29T02:38:46;39.15;36.20;41.89;;
61095;Laerm;20450;49.074;9.158;2023-07-29T02:41:14;39.12;36.20;41.96;;
61095;Laerm;20450;49.074;9.158;2023-07-29T02:43:42;38.97;35.94;46.73;;
61095;Laerm;20450;49.074;9.158;2023-07-29T02:46:10;39.43;36.69;41.96;;
61095;Laerm;20450;49.074;9.158;2023-07-29T02:48:39;39.38;35.94;42.29;;
61095;Laerm;20450;49.074;9.158;2023-07-29T02:51:05;39.31;36.69;42.16;;
61095;Laerm;20450;49.074;9.158;2023-07-29T02:53:33;39.28;36.20;43.90;;
61095;Laerm;20450;49.074;9.158;2023-07-29T02:56:00;39.59;36.45;42.53;;
61095;Laerm;20450;49.074;9.158;2023-07-29T02:58:27;39.66;36.91;41.75;;
61095;Laerm;20450;49.074;9.158;2023-07-29T03:01:00;40.29;36.91;47.50;;
61095;Laerm;20450;49.074;9.158;2023-07-29T03:03:27;39.82;36.91;52.70;;
61095;Laerm;20450;49.074;9.158;2023-07-29T03:06:00;39.99;38.05;42.16;;
61095;Laerm;20450;49.074;9.158;2023-07-29T03:08:27;39.64;37.12;43.39;;
61095;Laerm;20450;49.074;9.158;2023-07-29T03:10:56;39.90;37.32;42.71;;
61095;Laerm;20450;49.074;9.158;2023-07-29T03:13:24;40.00;37.52;42.98;;
61095;Laerm;20450;49.074;9.158;2023-07-29T03:15:51;39.84;37.12;42.41;;
61095;Laerm;20450;49.074;9.158;2023-07-29T03:18:18;39.80;36.91;43.19;;
61095;Laerm;20450;49.074;9.158;2023-07-29T03:20:45;39.82;36.45;42.76;;
61095;Laerm;20450;49.074;9.158;2023-07-29T03:23:16;39.63;36.91;44.58;;
61095;Laerm;20450;49.074;9.158;2023-07-29T03:25:43;39.34;36.20;42.16;;
61095;Laerm;20450;49.074;9.158;2023-07-29T03:28:11;39.03;35.66;42.16;;
61095;Laerm;20450;49.074;9.158;2023-07-29T03:30:38;39.87;36.45;42.93;;
61095;Laerm;20450;49.074;9.158;2023-07-29T03:33:07;39.82;35.94;42.41;;
61095;Laerm;20450;49.074;9.158;2023-07-29T03:35:34;39.24;35.66;42.09;;
61095;Laerm;20450;49.074;9.158;2023-07-29T03:38:01;39.74;36.45;43.19;;
61095;Laerm;20450;49.074;9.158;2023-07-29T03:40:29;39.64;36.45;46.18;;
61095;Laerm;20450;49.074;9.158;2023-07-29T03:42:56;39.99;36.20;43.72;;
61095;Laerm;20450;49.074;9.158;2023-07-29T03:45:23;40.13;35.66;43.90;;
61095;Laerm;20450;49.074;9.158;2023-07-29T03:47:50;40.06;36.20;45.94;;
61095;Laerm;20450;49.074;9.158;2023-07-29T03:50:17;39.42;35.66;53.84;;
61095;Laerm;20450;49.074;9.158;2023-07-29T03:52:44;39.59;35.94;42.53;;
61095;Laerm;20450;49.074;9.158;2023-07-29T03:55:11;39.97;36.69;43.77;;
61095;Laerm;20450;49.074;9.158;2023-07-29T03:57:40;40.38;36.91;49.83;;
61095;Laerm;20450;49.074;9.158;2023-07-29T04:00:07;40.37;36.20;44.03;;
61095;Laerm;20450;49.074;9.158;2023-07-29T04:02:43;41.37;38.52;45.11;;
61095;Laerm;20450;49.074;9.158;2023-07-29T04:05:10;40.47;36.91;47.74;;
61095;Laerm;20450;49.074;9.158;2023-07-29T04:07:37;40.10;36.45;45.83;;
61095;Laerm;20450;49.074;9.158;2023-07-29T04:10:06;40.75;36.45;43.29;;
61095;Laerm;20450;49.074;9.158;2023-07-29T04:12:34;40.06;36.69;42.82;;
61095;Laerm;20450;49.074;9.158;2023-07-29T04:15:03;40.15;36.91;43.94;;
61095;Laerm;20450;49.074;9.158;2023-07-29T04:17:32;39.82;36.45;43.86;;
61095;Laerm;20450;49.074;9.158;2023-07-29T04:19:59;40.28;36.91;43.09;;
61095;Laerm;20450;49.074;9.158;2023-07-29T04:22:32;39.80;36.45;52.36;;
61095;Laerm;20450;49.074;9.158;2023-07-29T04:24:59;39.36;35.86;42.59;;
61095;Laerm;20450;49.074;9.158;2023-07-29T04:27:28;40.19;36.69;43.19;;
61095;Laerm;20450;49.074;9.158;2023-07-29T04:29:55;40.12;37.52;43.24;;
61095;Laerm;20450;49.074;9.158;2023-07-29T04:32:24;40.82;37.88;48.23;;
61095;Laerm;20450;49.074;9.158;2023-07-29T04:34:51;40.15;37.52;42.29;;
61095;Laerm;20450;49.074;9.158;2023-07-29T04:37:18;40.16;36.69;46.76;;
61095;Laerm;20450;49.074;9.158;2023-07-29T04:39:45;40.01;36.91;43.54;;
61095;Laerm;20450;49.074;9.158;2023-07-29T04:42:12;40.80;37.32;44.47;;
61095;Laerm;20450;49.074;9.158;2023-07-29T04:44:40;40.50;36.91;55.19;;
61095;Laerm;20450;49.074;9.158;2023-07-29T04:47:08;40.90;37.12;46.48;;
61095;Laerm;20450;49.074;9.158;2023-07-29T04:49:37;48.56;42.93;53.07;;
61095;Laerm;20450;49.074;9.158;2023-07-29T04:52:05;43.03;40.43;59.96;;
61095;Laerm;20450;49.074;9.158;2023-07-29T04:54:32;48.66;40.80;66.78;;
61095;Laerm;20450;49.074;9.158;2023-07-29T04:56:59;49.46;42.76;63.79;;
61095;Laerm;20450;49.074;9.158;2023-07-29T04:59:27;42.28;39.21;56.19;;
61095;Laerm;20450;49.074;9.158;2023-07-29T05:01:54;41.09;38.52;51.03;;
61095;Laerm;20450;49.074;9.158;2023-07-29T05:04:21;44.19;38.52;70.70;;
61095;Laerm;20450;49.074;9.158;2023-07-29T05:06:49;41.77;38.21;64.41;;
61095;Laerm;20450;49.074;9.158;2023-07-29T05:09:18;47.34;38.81;81.32;;
61095;Laerm;20450;49.074;9.158;2023-07-29T05:11:46;41.20;38.37;49.80;;
61095;Laerm;20450;49.074;9.158;2023-07-29T05:14:13;61.12;36.69;96.92;;
61095;Laerm;20450;49.074;9.158;2023-07-29T05:16:41;41.87;37.52;54.64;;
61095;Laerm;20450;49.074;9.158;2023-07-29T05:19:09;42.16;39.46;56.20;;
61095;Laerm;20450;49.074;9.158;2023-07-29T05:21:37;42.86;37.70;64.20;;
61095;Laerm;20450;49.074;9.158;2023-07-29T05:24:06;57.20;35.36;82.19;;
61095;Laerm;20450;49.074;9.158;2023-07-29T05:26:33;53.91;35.94;71.45;;
61095;Laerm;20450;49.074;9.158;2023-07-29T05:29:01;56.34;35.36;91.28;;
61095;Laerm;20450;49.074;9.158;2023-07-29T05:31:29;46.57;36.45;67.29;;
61095;Laerm;20450;49.074;9.158;2023-07-29T05:33:55;46.12;35.36;69.14;;
61095;Laerm;20450;49.074;9.158;2023-07-29T05:36:23;50.24;36.20;81.77;;
61095;Laerm;20450;49.074;9.158;2023-07-29T05:38:51;45.30;37.12;68.45;;
61095;Laerm;20450;49.074;9.158;2023-07-29T05:41:20;42.08;35.94;62.83;;
61095;Laerm;20450;49.074;9.158;2023-07-29T05:43:47;41.27;37.52;53.06;;
61095;Laerm;20450;49.074;9.158;2023-07-29T05:46:14;41.95;37.32;52.69;;
61095;Laerm;20450;49.074;9.158;2023-07-29T05:48:43;42.86;38.52;63.73;;
61095;Laerm;20450;49.074;9.158;2023-07-29T05:51:11;43.07;37.12;62.85;;
61095;Laerm;20450;49.074;9.158;2023-07-29T05:53:39;61.47;37.12;95.32;;
61095;Laerm;20450;49.074;9.158;2023-07-29T05:56:06;42.38;38.52;55.98;;
61095;Laerm;20450;49.074;9.158;2023-07-29T05:58:34;41.23;36.45;52.11;;
61095;Laerm;20450;49.074;9.158;2023-07-29T06:01:01;40.51;36.91;51.68;;
61095;Laerm;20450;49.074;9.158;2023-07-29T06:03:28;40.90;36.69;65.50;;
61095;Laerm;20450;49.074;9.158;2023-07-29T06:05:56;40.98;37.12;60.85;;
61095;Laerm;20450;49.074;9.158;2023-07-29T06:08:23;40.76;37.52;63.81;;
61095;Laerm;20450;49.074;9.158;2023-07-29T06:10:50;40.88;37.12;51.91;;
61095;Laerm;20450;49.074;9.158;2023-07-29T06:13:17;40.89;36.69;53.57;;
61095;Laerm;20450;49.074;9.158;2023-07-29T06:15:45;40.87;35.94;57.41;;
61095;Laerm;20450;49.074;9.158;2023-07-29T06:18:13;40.86;35.66;54.36;;
61095;Laerm;20450;49.074;9.158;2023-07-29T06:20:40;40.91;37.12;57.90;;
61095;Laerm;20450;49.074;9.158;2023-07-29T06:23:08;40.45;36.45;52.78;;
61095;Laerm;20450;49.074;9.158;2023-07-29T06:25:35;40.47;36.20;57.54;;
61095;Laerm;20450;49.074;9.158;2023-07-29T06:28:02;41.88;36.20;61.52;;
61095;Laerm;20450;49.074;9.158;2023-07-29T06:30:30;41.85;36.45;60.68;;
61095;Laerm;20450;49.074;9.158;2023-07-29T06:32:58;41.36;36.20;61.80;;
61095;Laerm;20450;49.074;9.158;2023-07-29T06:35:25;40.48;36.69;52.89;;
61095;Laerm;20450;49.074;9.158;2023-07-29T06:37:52;42.57;36.45;66.73;;
61095;Laerm;20450;49.074;9.158;2023-07-29T06:40:19;41.35;36.91;50.82;;
61095;Laerm;20450;49.074;9.158;2023-07-29T06:42:47;41.87;37.12;64.58;;
61095;Laerm;20450;49.074;9.158;2023-07-29T06:45:14;41.01;36.91;55.72;;
61095;Laerm;20450;49.074;9.158;2023-07-29T06:47:42;40.54;37.12;56.55;;
61095;Laerm;20450;49.074;9.158;2023-07-29T06:50:11;41.19;37.12;51.02;;
61095;Laerm;20450;49.074;9.158;2023-07-29T06:52:38;41.19;35.94;48.70;;
61095;Laerm;20450;49.074;9.158;2023-07-29T06:55:06;40.27;36.91;46.10;;
61095;Laerm;20450;49.074;9.158;2023-07-29T06:57:33;40.85;37.12;51.55;;
61095;Laerm;20450;49.074;9.158;2023-07-29T07:00:02;40.84;36.45;55.73;;
61095;Laerm;20450;49.074;9.158;2023-07-29T07:02:31;43.91;37.35;61.33;;
61095;Laerm;20450;49.074;9.158;2023-07-29T07:04:58;44.73;36.45;78.45;;
61095;Laerm;20450;49.074;9.158;2023-07-29T07:07:26;40.33;36.20;52.43;;
61095;Laerm;20450;49.074;9.158;2023-07-29T07:09:53;40.98;37.88;48.54;;
61095;Laerm;20450;49.074;9.158;2023-07-29T07:12:20;40.60;36.69;47.28;;
61095;Laerm;20450;49.074;9.158;2023-07-29T07:14:47;40.64;36.69;45.48;;
61095;Laerm;20450;49.074;9.158;2023-07-29T07:17:14;40.78;36.69;67.50;;
61095;Laerm;20450;49.074;9.158;2023-07-29T07:19:41;39.88;36.69;52.74;;
61095;Laerm;20450;49.074;9.158;2023-07-29T07:22:08;41.24;37.88;47.36;;
61095;Laerm;20450;49.074;9.158;2023-07-29T07:24:38;40.96;37.70;48.66;;
61095;Laerm;20450;49.074;9.158;2023-07-29T07:27:05;41.13;36.69;55.24;;
61095;Laerm;20450;49.074;9.158;2023-07-29T07:29:32;40.71;37.70;55.10;;
61095;Laerm;20450;49.074;9.158;2023-07-29T07:32:00;41.61;37.52;56.76;;
61095;Laerm;20450;49.074;9.158;2023-07-29T07:34:27;40.88;37.35;50.95;;
61095;Laerm;20450;49.074;9.158;2023-07-29T07:36:54;41.24;37.70;49.08;;
61095;Laerm;20450;49.074;9.158;2023-07-29T07:39:21;47.08;37.70;81.57;;
61095;Laerm;20450;49.074;9.158;2023-07-29T07:41:50;40.97;37.70;54.03;;
61095;Laerm;20450;49.074;9.158;2023-07-29T07:44:17;40.54;37.52;43.63;;
61095;Laerm;20450;49.074;9.158;2023-07-29T07:46:47;42.03;38.81;54.64;;
61095;Laerm;20450;49.074;9.158;2023-07-29T07:49:14;41.07;38.05;47.63;;
61095;Laerm;20450;49.074;9.158;2023-07-29T07:51:43;41.12;37.52;47.32;;
61095;Laerm;20450;49.074;9.158;2023-07-29T07:54:14;41.48;38.37;48.49;;
61095;Laerm;20450;49.074;9.158;2023-07-29T07:56:43;41.31;38.21;47.50;;
61095;Laerm;20450;49.074;9.158;2023-07-29T07:59:12;41.47;37.52;58.26;;
61095;Laerm;20450;49.074;9.158;2023-07-29T08:01:43;41.47;36.45;48.34;;
61095;Laerm;20450;49.074;9.158;2023-07-29T08:04:12;40.53;37.12;50.83;;
61095;Laerm;20450;49.074;9.158;2023-07-29T08:06:40;41.42;37.88;48.21;;
61095;Laerm;20450;49.074;9.158;2023-07-29T08:09:07;41.05;37.12;49.67;;
61095;Laerm;20450;49.074;9.158;2023-07-29T08:11:37;41.14;36.69;47.48;;
61095;Laerm;20450;49.074;9.158;2023-07-29T08:14:04;41.19;36.69;50.57;;
61095;Laerm;20450;49.074;9.158;2023-07-29T08:16:34;40.68;37.12;43.72;;
61095;Laerm;20450;49.074;9.158;2023-07-29T08:19:05;41.25;36.91;48.07;;
61095;Laerm;20450;49.074;9.158;2023-07-29T08:21:32;40.97;37.70;44.39;;
61095;Laerm;20450;49.074;9.158;2023-07-29T08:24:00;41.10;37.32;48.05;;
61095;Laerm;20450;49.074;9.158;2023-07-29T08:26:28;41.16;37.88;46.40;;
61095;Laerm;20450;49.074;9.158;2023-07-29T08:28:56;42.19;38.67;53.82;;
61095;Laerm;20450;49.074;9.158;2023-07-29T08:31:23;41.56;37.88;54.27;;
61095;Laerm;20450;49.074;9.158;2023-07-29T08:33:52;42.16;38.02;53.67;;
61095;Laerm;20450;49.074;9.158;2023-07-29T08:36:21;41.55;38.52;46.50;;
61095;Laerm;20450;49.074;9.158;2023-07-29T08:38:51;41.56;37.12;52.09;;
61095;Laerm;20450;49.074;9.158;2023-07-29T08:41:25;41.88;36.45;56.73;;
61095;Laerm;20450;49.074;9.158;2023-07-29T08:44:06;41.93;38.21;46.38;;
61095;Laerm;20450;49.074;9.158;2023-07-29T08:46:39;41.82;37.70;49.00;;
61095;Laerm;20450;49.074;9.158;2023-07-29T08:49:11;41.53;38.21;56.80;;
61095;Laerm;20450;49.074;9.158;2023-07-29T08:51:41;41.99;38.67;50.75;;
61095;Laerm;20450;49.074;9.158;2023-07-29T08:54:10;42.53;37.70;55.54;;
61095;Laerm;20450;49.074;9.158;2023-07-29T08:56:40;42.32;39.21;58.18;;
61095;Laerm;20450;49.074;9.158;2023-07-29T08:59:10;43.27;38.32;67.83;;
61095;Laerm;20450;49.074;9.158;2023-07-29T09:01:38;42.12;38.21;53.78;;
61095;Laerm;20450;49.074;9.158;2023-07-29T09:04:06;41.74;38.67;47.77;;
61095;Laerm;20450;49.074;9.158;2023-07-29T09:06:35;42.81;38.95;52.16;;
61095;Laerm;20450;49.074;9.158;2023-07-29T09:09:03;42.26;38.21;52.11;;
61095;Laerm;20450;49.074;9.158;2023-07-29T09:11:31;42.54;38.37;55.89;;
61095;Laerm;20450;49.074;9.158;2023-07-29T09:14:00;42.48;39.34;57.68;;
61095;Laerm;20450;49.074;9.158;2023-07-29T09:16:28;41.39;38.05;53.39;;
61095;Laerm;20450;49.074;9.158;2023-07-29T09:19:01;41.71;37.52;50.83;;
61095;Laerm;20450;49.074;9.158;2023-07-29T09:21:29;40.87;37.52;47.50;;
61095;Laerm;20450;49.074;9.158;2023-07-29T09:24:03;41.32;37.88;50.98;;
61095;Laerm;20450;49.074;9.158;2023-07-29T09:26:31;42.23;38.47;58.59;;
61095;Laerm;20450;49.074;9.158;2023-07-29T09:28:59;40.39;37.12;45.77;;
61095;Laerm;20450;49.074;9.158;2023-07-29T09:31:28;41.15;37.52;48.84;;
61095;Laerm;20450;49.074;9.158;2023-07-29T09:33:57;41.28;37.32;46.48;;
61095;Laerm;20450;49.074;9.158;2023-07-29T09:36:25;43.17;38.67;55.66;;
61095;Laerm;20450;49.074;9.158;2023-07-29T09:38:54;42.26;38.05;52.89;;
61095;Laerm;20450;49.074;9.158;2023-07-29T09:41:24;41.92;38.52;52.37;;
61095;Laerm;20450;49.074;9.158;2023-07-29T09:43:56;41.22;38.67;49.32;;
61095;Laerm;20450;49.074;9.158;2023-07-29T09:46:32;41.88;38.52;51.91;;
61095;Laerm;20450;49.074;9.158;2023-07-29T09:49:02;41.76;38.21;49.93;;
61095;Laerm;20450;49.074;9.158;2023-07-29T09:51:30;43.34;39.34;60.66;;
61095;Laerm;20450;49.074;9.158;2023-07-29T09:53:57;44.84;39.08;66.24;;
61095;Laerm;20450;49.074;9.158;2023-07-29T09:56:26;43.04;39.08;59.05;;
61095;Laerm;20450;49.074;9.158;2023-07-29T09:58:56;42.28;39.58;54.42;;
61095;Laerm;20450;49.074;9.158;2023-07-29T10:01:24;42.95;40.71;50.24;;
61095;Laerm;20450;49.074;9.158;2023-07-29T10:03:52;44.10;41.14;52.70;;
61095;Laerm;20450;49.074;9.158;2023-07-29T10:06:20;46.65;43.19;65.22;;
61095;Laerm;20450;49.074;9.158;2023-07-29T10:08:52;45.72;42.09;68.51;;
61095;Laerm;20450;49.074;9.158;2023-07-29T10:11:21;44.52;40.33;60.42;;
61095;Laerm;20450;49.074;9.158;2023-07-29T10:13:51;44.04;39.70;68.40;;
61095;Laerm;20450;49.074;9.158;2023-07-29T10:16:34;45.16;38.05;79.31;;
61095;Laerm;20450;49.074;9.158;2023-07-29T10:19:04;61.10;39.46;96.98;;
61095;Laerm;20450;49.074;9.158;2023-07-29T10:21:32;44.47;38.67;68.83;;
61095;Laerm;20450;49.074;9.158;2023-07-29T10:24:06;54.40;37.32;87.12;;
61095;Laerm;20450;49.074;9.158;2023-07-29T10:26:40;59.54;36.69;93.15;;
61095;Laerm;20450;49.074;9.158;2023-07-29T10:29:14;41.65;37.32;58.74;;
61095;Laerm;20450;49.074;9.158;2023-07-29T10:31:46;41.05;37.12;55.03;;
61095;Laerm;20450;49.074;9.158;2023-07-29T10:34:14;40.85;37.70;50.42;;
61095;Laerm;20450;49.074;9.158;2023-07-29T10:36:42;41.47;38.37;57.41;;
61095;Laerm;20450;49.074;9.158;2023-07-29T10:39:09;40.99;37.52;47.93;;
61095;Laerm;20450;49.074;9.158;2023-07-29T10:41:57;41.25;38.05;66.47;;
61095;Laerm;20450;49.074;9.158;2023-07-29T10:44:53;41.39;38.05;53.37;;
61095;Laerm;20450;49.074;9.158;2023-07-29T10:47:25;41.00;37.70;45.11;;
61095;Laerm;20450;49.074;9.158;2023-07-29T10:49:56;41.84;38.52;47.91;;
61095;Laerm;20450;49.074;9.158;2023-07-29T10:52:39;41.76;38.67;66.47;;
61095;Laerm;20450;49.074;9.158;2023-07-29T10:55:27;40.88;37.52;48.74;;
61095;Laerm;20450;49.074;9.158;2023-07-29T10:58:10;42.25;36.91;57.22;;
61095;Laerm;20450;49.074;9.158;2023-07-29T11:00:42;41.05;37.70;46.25;;
61095;Laerm;20450;49.074;9.158;2023-07-29T11:03:09;40.40;37.12;46.93;;
61095;Laerm;20450;49.074;9.158;2023-07-29T11:05:49;40.65;36.77;50.41;;
61095;Laerm;20450;49.074;9.158;2023-07-29T11:08:28;40.69;37.52;49.90;;
61095;Laerm;20450;49.074;9.158;2023-07-29T11:11:05;40.50;36.91;49.84;;
61095;Laerm;20450;49.074;9.158;2023-07-29T11:13:35;40.79;36.77;55.53;;
61095;Laerm;20450;49.074;9.158;2023-07-29T11:16:05;41.32;38.05;47.88;;
61095;Laerm;20450;49.074;9.158;2023-07-29T11:18:35;41.24;37.12;51.58;;
61095;Laerm;20450;49.074;9.158;2023-07-29T11:21:05;40.86;37.70;49.23;;
61095;Laerm;20450;49.074;9.158;2023-07-29T11:23:37;41.11;37.70;53.90;;
61095;Laerm;20450;49.074;9.158;2023-07-29T11:26:05;41.33;36.69;50.15;;
61095;Laerm;20450;49.074;9.158;2023-07-29T11:28:38;40.50;36.69;45.66;;
61095;Laerm;20450;49.074;9.158;2023-07-29T11:31:07;41.37;38.05;57.99;;
61095;Laerm;20450;49.074;9.158;2023-07-29T11:33:34;40.78;37.32;48.43;;
61095;Laerm;20450;49.074;9.158;2023-07-29T11:36:02;40.43;37.52;44.11;;
61095;Laerm;20450;49.074;9.158;2023-07-29T11:38:29;41.39;38.05;48.83;;
61095;Laerm;20450;49.074;9.158;2023-07-29T11:41:00;42.72;38.67;50.37;;
61095;Laerm;20450;49.074;9.158;2023-07-29T11:43:27;43.35;39.58;63.05;;
61095;Laerm;20450;49.074;9.158;2023-07-29T11:45:55;44.41;41.75;57.02;;
61095;Laerm;20450;49.074;9.158;2023-07-29T11:48:32;44.52;41.81;50.46;;
61095;Laerm;20450;49.074;9.158;2023-07-29T11:51:00;43.33;39.34;51.34;;
61095;Laerm;20450;49.074;9.158;2023-07-29T11:53:30;43.82;40.43;53.15;;
61095;Laerm;20450;49.074;9.158;2023-07-29T11:55:58;43.96;41.61;52.27;;
61095;Laerm;20450;49.074;9.158;2023-07-29T11:58:26;44.34;40.53;51.56;;
61095;Laerm;20450;49.074;9.158;2023-07-29T12:00:55;43.54;40.62;51.74;;
61095;Laerm;20450;49.074;9.158;2023-07-29T12:03:23;43.48;40.23;52.29;;
61095;Laerm;20450;49.074;9.158;2023-07-29T12:05:52;43.70;40.13;52.68;;
61095;Laerm;20450;49.074;9.158;2023-07-29T12:08:20;42.54;39.34;52.94;;
61095;Laerm;20450;49.074;9.158;2023-07-29T12:10:47;41.91;38.67;50.63;;
61095;Laerm;20450;49.074;9.158;2023-07-29T12:13:14;41.85;38.67;52.53;;
61095;Laerm;20450;49.074;9.158;2023-07-29T12:15:42;43.19;40.71;52.02;;
61095;Laerm;20450;49.074;9.158;2023-07-29T12:18:12;43.07;39.92;48.20;;
61095;Laerm;20450;49.074;9.158;2023-07-29T12:20:39;43.64;41.68;45.94;;
61095;Laerm;20450;49.074;9.158;2023-07-29T12:23:08;43.91;41.38;47.20;;
61095;Laerm;20450;49.074;9.158;2023-07-29T12:25:35;42.73;39.92;47.76;;
61095;Laerm;20450;49.074;9.158;2023-07-29T12:28:04;42.84;39.70;53.74;;
61095;Laerm;20450;49.074;9.158;2023-07-29T12:30:32;43.67;40.43;50.85;;
61095;Laerm;20450;49.074;9.158;2023-07-29T12:32:58;44.83;41.14;48.83;;
61095;Laerm;20450;49.074;9.158;2023-07-29T12:35:35;44.25;41.46;51.48;;
61095;Laerm;20450;49.074;9.158;2023-07-29T12:38:02;44.34;42.41;48.29;;
61095;Laerm;20450;49.074;9.158;2023-07-29T12:40:31;44.67;42.41;54.40;;
61095;Laerm;20450;49.074;9.158;2023-07-29T12:42:58;44.77;41.68;57.98;;
61095;Laerm;20450;49.074;9.158;2023-07-29T12:45:36;44.26;40.98;59.55;;
61095;Laerm;20450;49.074;9.158;2023-07-29T12:48:03;46.28;41.14;64.85;;
61095;Laerm;20450;49.074;9.158;2023-07-29T12:50:30;44.95;42.35;56.20;;
61095;Laerm;20450;49.074;9.158;2023-07-29T12:52:57;45.25;42.29;53.54;;
61095;Laerm;20450;49.074;9.158;2023-07-29T12:55:25;44.71;41.61;53.13;;
61095;Laerm;20450;49.074;9.158;2023-07-29T12:57:54;45.12;41.53;64.46;;
61095;Laerm;20450;49.074;9.158;2023-07-29T13:00:21;45.67;43.29;55.98;;
61095;Laerm;20450;49.074;9.158;2023-07-29T13:02:48;45.33;42.22;54.05;;
61095;Laerm;20450;49.074;9.158;2023-07-29T13:05:16;45.37;42.82;51.08;;
61095;Laerm;20450;49.074;9.158;2023-07-29T13:07:44;45.58;43.39;49.16;;
61095;Laerm;20450;49.074;9.158;2023-07-29T13:10:11;44.82;42.03;50.25;;
61095;Laerm;20450;49.074;9.158;2023-07-29T13:12:40;44.81;42.09;52.86;;
61095;Laerm;20450;49.074;9.158;2023-07-29T13:15:10;44.85;41.53;52.81;;
61095;Laerm;20450;49.074;9.158;2023-07-29T13:17:37;44.41;41.38;49.57;;
61095;Laerm;20450;49.074;9.158;2023-07-29T13:20:06;44.81;42.41;52.95;;
61095;Laerm;20450;49.074;9.158;2023-07-29T13:22:34;44.62;41.06;52.45;;
61095;Laerm;20450;49.074;9.158;2023-07-29T13:25:02;45.34;43.19;50.18;;
61095;Laerm;20450;49.074;9.158;2023-07-29T13:27:29;45.04;42.65;50.32;;
61095;Laerm;20450;49.074;9.158;2023-07-29T13:29:56;43.98;41.89;48.58;;
61095;Laerm;20450;49.074;9.158;2023-07-29T13:32:24;42.14;37.52;54.00;;
61095;Laerm;20450;49.074;9.158;2023-07-29T13:34:55;41.83;38.21;54.76;;
61095;Laerm;20450;49.074;9.158;2023-07-29T13:37:22;43.55;39.46;57.98;;
61095;Laerm;20450;49.074;9.158;2023-07-29T13:39:49;45.21;41.89;53.07;;
61095;Laerm;20450;49.074;9.158;2023-07-29T13:42:16;44.97;42.71;56.59;;
61095;Laerm;20450;49.074;9.158;2023-07-29T13:44:44;45.49;42.29;51.53;;
61095;Laerm;20450;49.074;9.158;2023-07-29T13:47:11;44.37;42.35;48.93;;
61095;Laerm;20450;49.074;9.158;2023-07-29T13:49:39;46.10;41.53;60.04;;
61095;Laerm;20450;49.074;9.158;2023-07-29T13:52:07;43.85;40.62;51.14;;
61095;Laerm;20450;49.074;9.158;2023-07-29T13:54:34;44.32;40.89;58.11;;